sensor_id;sensor_type;location;lat;lon;timestamp;P1;durP1;ratioP1;P2;durP2;ratioP2
12332;SDS011;6232;48.094;11.288;2023-01-16T00:01:21;1.60;;;1.50;;
12332;SDS011;6232;48.094;11.288;2023-01-16T00:04:07;1.20;;;1.20;;
12332;SDS011;6232;48.094;11.288;2023-01-16T00:06:52;1.80;;;1.40;;
12332;SDS011;6232;48.094;11.288;2023-01-16T00:09:38;1.80;;;1.70;;
12332;SDS011;6232;48.094;11.288;2023-01-16T00:12:23;2.20;;;1.90;;
12332;SDS011;6232;48.094;11.288;2023-01-16T00:15:09;1.50;;;1.40;;
12332;SDS011;6232;48.094;11.288;2023-01-16T00:17:55;1.63;;;1.50;;
12332;SDS011;6232;48.094;11.288;2023-01-16T00:20:40;1.50;;;1.40;;
12332;SDS011;6232;48.094;11.288;2023-01-16T00:23:26;1.23;;;1.13;;
12332;SDS011;6232;48.094;11.288;2023-01-16T00:26:11;3.47;;;1.30;;
12332;SDS011;6232;48.094;11.288;2023-01-16T00:28:57;1.40;;;1.30;;
12332;SDS011;6232;48.094;11.288;2023-01-16T00:31:43;1.50;;;1.37;;
12332;SDS011;6232;48.094;11.288;2023-01-16T00:34:28;1.33;;;1.23;;
12332;SDS011;6232;48.094;11.288;2023-01-16T00:37:14;1.70;;;1.43;;
12332;SDS011;6232;48.094;11.288;2023-01-16T00:40:00;1.47;;;1.10;;
12332;SDS011;6232;48.094;11.288;2023-01-16T00:42:45;1.20;;;1.20;;
12332;SDS011;6232;48.094;11.288;2023-01-16T00:45:31;5.40;;;1.93;;
12332;SDS011;6232;48.094;11.288;2023-01-16T00:48:16;1.27;;;1.20;;
12332;SDS011;6232;48.094;11.288;2023-01-16T00:51:02;1.77;;;1.67;;
12332;SDS011;6232;48.094;11.288;2023-01-16T00:53:48;1.47;;;1.37;;
12332;SDS011;6232;48.094;11.288;2023-01-16T00:56:33;1.53;;;1.43;;
12332;SDS011;6232;48.094;11.288;2023-01-16T00:59:19;1.40;;;1.30;;
12332;SDS011;6232;48.094;11.288;2023-01-16T01:02:04;1.10;;;1.07;;
12332;SDS011;6232;48.094;11.288;2023-01-16T01:04:50;1.83;;;1.40;;
12332;SDS011;6232;48.094;11.288;2023-01-16T01:07:35;1.50;;;1.40;;
12332;SDS011;6232;48.094;11.288;2023-01-16T01:10:21;4.93;;;1.50;;
12332;SDS011;6232;48.094;11.288;2023-01-16T01:13:06;1.30;;;1.30;;
12332;SDS011;6232;48.094;11.288;2023-01-16T01:15:52;3.90;;;1.60;;
12332;SDS011;6232;48.094;11.288;2023-01-16T01:18:39;1.20;;;1.20;;
12332;SDS011;6232;48.094;11.288;2023-01-16T01:21:25;3.07;;;1.67;;
12332;SDS011;6232;48.094;11.288;2023-01-16T01:24:10;1.40;;;1.40;;
12332;SDS011;6232;48.094;11.288;2023-01-16T01:26:56;1.50;;;1.40;;
12332;SDS011;6232;48.094;11.288;2023-01-16T01:29:42;1.40;;;1.40;;
12332;SDS011;6232;48.094;11.288;2023-01-16T01:32:27;1.50;;;1.40;;
12332;SDS011;6232;48.094;11.288;2023-01-16T01:35:13;1.73;;;1.40;;
12332;SDS011;6232;48.094;11.288;2023-01-16T01:37:58;1.40;;;1.30;;
12332;SDS011;6232;48.094;11.288;2023-01-16T01:40:44;1.20;;;1.20;;
12332;SDS011;6232;48.094;11.288;2023-01-16T01:46:30;1.80;;;1.30;;
12332;SDS011;6232;48.094;11.288;2023-01-16T01:49:26;1.40;;;1.20;;
12332;SDS011;6232;48.094;11.288;2023-01-16T01:52:13;4.00;;;1.50;;
12332;SDS011;6232;48.094;11.288;2023-01-16T01:55:00;3.17;;;1.60;;
12332;SDS011;6232;48.094;11.288;2023-01-16T01:57:48;1.40;;;1.37;;
12332;SDS011;6232;48.094;11.288;2023-01-16T02:00:35;1.30;;;1.20;;
12332;SDS011;6232;48.094;11.288;2023-01-16T02:03:22;1.70;;;1.60;;
12332;SDS011;6232;48.094;11.288;2023-01-16T02:06:16;1.23;;;1.23;;
12332;SDS011;6232;48.094;11.288;2023-01-16T02:09:03;1.77;;;1.67;;
12332;SDS011;6232;48.094;11.288;2023-01-16T02:11:53;1.53;;;1.40;;
12332;SDS011;6232;48.094;11.288;2023-01-16T02:14:41;1.20;;;1.20;;
12332;SDS011;6232;48.094;11.288;2023-01-16T02:17:27;1.30;;;1.20;;
12332;SDS011;6232;48.094;11.288;2023-01-16T02:20:31;1.70;;;1.60;;
12332;SDS011;6232;48.094;11.288;2023-01-16T02:34:53;1.50;;;1.40;;
12332;SDS011;6232;48.094;11.288;2023-01-16T02:37:49;1.47;;;1.37;;
12332;SDS011;6232;48.094;11.288;2023-01-16T02:46:34;1.20;;;1.20;;
12332;SDS011;6232;48.094;11.288;2023-01-16T02:49:29;1.63;;;1.53;;
12332;SDS011;6232;48.094;11.288;2023-01-16T02:52:36;1.67;;;1.57;;
12332;SDS011;6232;48.094;11.288;2023-01-16T02:55:26;1.20;;;1.20;;
12332;SDS011;6232;48.094;11.288;2023-01-16T02:58:14;2.30;;;1.67;;
12332;SDS011;6232;48.094;11.288;2023-01-16T03:01:00;1.13;;;1.13;;
12332;SDS011;6232;48.094;11.288;2023-01-16T03:03:50;1.70;;;1.60;;
12332;SDS011;6232;48.094;11.288;2023-01-16T03:06:43;2.20;;;2.10;;
12332;SDS011;6232;48.094;11.288;2023-01-16T03:15:11;4.97;;;4.27;;
12332;SDS011;6232;48.094;11.288;2023-01-16T03:26:42;11.23;;;6.30;;
12332;SDS011;6232;48.094;11.288;2023-01-16T03:29:31;3.77;;;3.47;;
12332;SDS011;6232;48.094;11.288;2023-01-16T03:38:09;4.83;;;3.47;;
12332;SDS011;6232;48.094;11.288;2023-01-16T03:40:56;5.10;;;2.17;;
12332;SDS011;6232;48.094;11.288;2023-01-16T03:43:45;4.83;;;3.73;;
12332;SDS011;6232;48.094;11.288;2023-01-16T03:46:36;28.97;;;13.73;;
12332;SDS011;6232;48.094;11.288;2023-01-16T03:49:25;13.87;;;4.73;;
12332;SDS011;6232;48.094;11.288;2023-01-16T03:52:14;21.43;;;10.10;;
12332;SDS011;6232;48.094;11.288;2023-01-16T03:55:07;26.53;;;9.87;;
12332;SDS011;6232;48.094;11.288;2023-01-16T03:58:02;20.20;;;5.30;;
12332;SDS011;6232;48.094;11.288;2023-01-16T04:00:53;18.67;;;5.70;;
12332;SDS011;6232;48.094;11.288;2023-01-16T04:03:41;4.63;;;3.40;;
12332;SDS011;6232;48.094;11.288;2023-01-16T04:09:17;1.60;;;1.57;;
12332;SDS011;6232;48.094;11.288;2023-01-16T04:12:03;1.47;;;1.40;;
12332;SDS011;6232;48.094;11.288;2023-01-16T04:14:54;1.40;;;1.40;;
12332;SDS011;6232;48.094;11.288;2023-01-16T04:17:41;1.20;;;1.20;;
12332;SDS011;6232;48.094;11.288;2023-01-16T04:20:27;3.57;;;1.70;;
12332;SDS011;6232;48.094;11.288;2023-01-16T04:23:13;1.27;;;1.27;;
12332;SDS011;6232;48.094;11.288;2023-01-16T04:26:01;1.30;;;1.30;;
12332;SDS011;6232;48.094;11.288;2023-01-16T04:28:46;1.50;;;1.40;;
12332;SDS011;6232;48.094;11.288;2023-01-16T04:31:32;1.63;;;1.37;;
12332;SDS011;6232;48.094;11.288;2023-01-16T04:34:17;1.40;;;1.30;;
12332;SDS011;6232;48.094;11.288;2023-01-16T04:37:03;1.50;;;1.40;;
12332;SDS011;6232;48.094;11.288;2023-01-16T04:39:49;1.30;;;1.30;;
12332;SDS011;6232;48.094;11.288;2023-01-16T04:42:35;1.40;;;1.30;;
12332;SDS011;6232;48.094;11.288;2023-01-16T04:45:21;1.47;;;1.37;;
12332;SDS011;6232;48.094;11.288;2023-01-16T04:48:07;1.50;;;1.40;;
12332;SDS011;6232;48.094;11.288;2023-01-16T04:50:52;1.63;;;1.60;;
12332;SDS011;6232;48.094;11.288;2023-01-16T04:53:38;2.50;;;1.53;;
12332;SDS011;6232;48.094;11.288;2023-01-16T04:56:23;1.70;;;1.60;;
12332;SDS011;6232;48.094;11.288;2023-01-16T04:59:09;1.67;;;1.57;;
12332;SDS011;6232;48.094;11.288;2023-01-16T05:01:55;2.17;;;2.07;;
12332;SDS011;6232;48.094;11.288;2023-01-16T05:04:41;1.43;;;1.43;;
12332;SDS011;6232;48.094;11.288;2023-01-16T05:07:27;1.50;;;1.40;;
12332;SDS011;6232;48.094;11.288;2023-01-16T05:10:12;1.67;;;1.57;;
12332;SDS011;6232;48.094;11.288;2023-01-16T05:12:58;1.90;;;1.80;;
12332;SDS011;6232;48.094;11.288;2023-01-16T05:15:44;1.60;;;1.50;;
12332;SDS011;6232;48.094;11.288;2023-01-16T05:18:29;1.30;;;1.20;;
12332;SDS011;6232;48.094;11.288;2023-01-16T05:21:15;1.80;;;1.70;;
12332;SDS011;6232;48.094;11.288;2023-01-16T05:24:00;5.13;;;3.53;;
12332;SDS011;6232;48.094;11.288;2023-01-16T05:26:46;9.30;;;6.80;;
12332;SDS011;6232;48.094;11.288;2023-01-16T05:29:31;11.20;;;6.37;;
12332;SDS011;6232;48.094;11.288;2023-01-16T05:32:17;7.53;;;4.93;;
12332;SDS011;6232;48.094;11.288;2023-01-16T05:35:02;9.00;;;5.23;;
12332;SDS011;6232;48.094;11.288;2023-01-16T05:37:48;5.40;;;4.90;;
12332;SDS011;6232;48.094;11.288;2023-01-16T05:40:34;6.10;;;5.70;;
12332;SDS011;6232;48.094;11.288;2023-01-16T05:43:20;5.40;;;5.00;;
12332;SDS011;6232;48.094;11.288;2023-01-16T05:46:05;5.97;;;5.47;;
12332;SDS011;6232;48.094;11.288;2023-01-16T05:48:51;3.50;;;3.30;;
12332;SDS011;6232;48.094;11.288;2023-01-16T05:51:36;5.00;;;2.70;;
12332;SDS011;6232;48.094;11.288;2023-01-16T05:54:22;3.23;;;2.97;;
12332;SDS011;6232;48.094;11.288;2023-01-16T05:57:07;2.07;;;1.97;;
12332;SDS011;6232;48.094;11.288;2023-01-16T05:59:53;1.93;;;1.83;;
12332;SDS011;6232;48.094;11.288;2023-01-16T06:02:39;1.77;;;1.67;;
12332;SDS011;6232;48.094;11.288;2023-01-16T06:05:24;2.80;;;2.30;;
12332;SDS011;6232;48.094;11.288;2023-01-16T06:08:10;2.40;;;2.30;;
12332;SDS011;6232;48.094;11.288;2023-01-16T06:10:56;1.37;;;1.37;;
12332;SDS011;6232;48.094;11.288;2023-01-16T06:13:42;2.20;;;1.70;;
12332;SDS011;6232;48.094;11.288;2023-01-16T06:16:28;2.80;;;2.07;;
12332;SDS011;6232;48.094;11.288;2023-01-16T06:19:14;1.60;;;1.60;;
12332;SDS011;6232;48.094;11.288;2023-01-16T06:21:59;1.83;;;1.40;;
12332;SDS011;6232;48.094;11.288;2023-01-16T06:24:45;1.57;;;1.47;;
12332;SDS011;6232;48.094;11.288;2023-01-16T06:27:30;1.73;;;1.63;;
12332;SDS011;6232;48.094;11.288;2023-01-16T06:30:17;1.80;;;1.57;;
12332;SDS011;6232;48.094;11.288;2023-01-16T06:33:03;1.83;;;1.70;;
12332;SDS011;6232;48.094;11.288;2023-01-16T06:35:49;2.20;;;1.80;;
12332;SDS011;6232;48.094;11.288;2023-01-16T06:38:34;1.97;;;1.97;;
12332;SDS011;6232;48.094;11.288;2023-01-16T06:41:21;1.60;;;1.50;;
12332;SDS011;6232;48.094;11.288;2023-01-16T06:44:06;1.30;;;1.30;;
12332;SDS011;6232;48.094;11.288;2023-01-16T06:46:52;1.40;;;1.30;;
12332;SDS011;6232;48.094;11.288;2023-01-16T06:49:38;2.03;;;1.73;;
12332;SDS011;6232;48.094;11.288;2023-01-16T06:52:23;1.63;;;1.40;;
12332;SDS011;6232;48.094;11.288;2023-01-16T06:55:09;1.43;;;1.40;;
12332;SDS011;6232;48.094;11.288;2023-01-16T06:57:54;1.90;;;1.50;;
12332;SDS011;6232;48.094;11.288;2023-01-16T07:00:40;1.90;;;1.80;;
12332;SDS011;6232;48.094;11.288;2023-01-16T07:03:26;1.30;;;1.30;;
12332;SDS011;6232;48.094;11.288;2023-01-16T07:06:12;2.77;;;2.23;;
12332;SDS011;6232;48.094;11.288;2023-01-16T07:09:00;1.50;;;1.40;;
12332;SDS011;6232;48.094;11.288;2023-01-16T07:11:46;1.67;;;1.57;;
12332;SDS011;6232;48.094;11.288;2023-01-16T07:14:32;1.30;;;1.30;;
12332;SDS011;6232;48.094;11.288;2023-01-16T07:17:37;1.63;;;1.53;;
12332;SDS011;6232;48.094;11.288;2023-01-16T07:20:41;1.70;;;1.70;;
12332;SDS011;6232;48.094;11.288;2023-01-16T07:23:49;1.73;;;1.63;;
12332;SDS011;6232;48.094;11.288;2023-01-16T07:26:36;1.87;;;1.77;;
12332;SDS011;6232;48.094;11.288;2023-01-16T07:29:24;2.00;;;1.90;;
12332;SDS011;6232;48.094;11.288;2023-01-16T07:32:10;1.97;;;1.87;;
12332;SDS011;6232;48.094;11.288;2023-01-16T07:34:56;1.77;;;1.70;;
12332;SDS011;6232;48.094;11.288;2023-01-16T07:37:41;3.63;;;1.77;;
12332;SDS011;6232;48.094;11.288;2023-01-16T07:40:28;2.17;;;2.00;;
12332;SDS011;6232;48.094;11.288;2023-01-16T07:43:13;1.90;;;1.80;;
12332;SDS011;6232;48.094;11.288;2023-01-16T07:45:59;1.83;;;1.83;;
12332;SDS011;6232;48.094;11.288;2023-01-16T07:48:44;1.93;;;1.43;;
12332;SDS011;6232;48.094;11.288;2023-01-16T07:51:30;1.87;;;1.77;;
12332;SDS011;6232;48.094;11.288;2023-01-16T07:54:15;3.63;;;1.70;;
12332;SDS011;6232;48.094;11.288;2023-01-16T07:57:01;1.57;;;1.47;;
12332;SDS011;6232;48.094;11.288;2023-01-16T07:59:47;4.77;;;1.90;;
12332;SDS011;6232;48.094;11.288;2023-01-16T08:02:32;7.30;;;1.73;;
12332;SDS011;6232;48.094;11.288;2023-01-16T08:05:18;5.50;;;1.80;;
12332;SDS011;6232;48.094;11.288;2023-01-16T08:08:03;2.07;;;1.97;;
12332;SDS011;6232;48.094;11.288;2023-01-16T08:10:52;1.50;;;1.40;;
12332;SDS011;6232;48.094;11.288;2023-01-16T08:13:37;1.80;;;1.77;;
12332;SDS011;6232;48.094;11.288;2023-01-16T08:16:25;3.23;;;1.40;;
12332;SDS011;6232;48.094;11.288;2023-01-16T08:19:11;1.80;;;1.70;;
12332;SDS011;6232;48.094;11.288;2023-01-16T08:21:57;1.70;;;1.60;;
12332;SDS011;6232;48.094;11.288;2023-01-16T08:24:42;1.30;;;1.30;;
12332;SDS011;6232;48.094;11.288;2023-01-16T08:27:28;3.00;;;1.60;;
12332;SDS011;6232;48.094;11.288;2023-01-16T08:30:14;1.97;;;1.87;;
12332;SDS011;6232;48.094;11.288;2023-01-16T08:33:00;6.10;;;1.70;;
12332;SDS011;6232;48.094;11.288;2023-01-16T08:35:47;1.70;;;1.60;;
12332;SDS011;6232;48.094;11.288;2023-01-16T08:38:32;1.60;;;1.50;;
12332;SDS011;6232;48.094;11.288;2023-01-16T08:41:18;1.80;;;1.70;;
12332;SDS011;6232;48.094;11.288;2023-01-16T08:44:22;1.60;;;1.50;;
12332;SDS011;6232;48.094;11.288;2023-01-16T08:47:27;1.70;;;1.60;;
12332;SDS011;6232;48.094;11.288;2023-01-16T08:50:31;2.60;;;1.63;;
12332;SDS011;6232;48.094;11.288;2023-01-16T08:53:35;1.60;;;1.50;;
12332;SDS011;6232;48.094;11.288;2023-01-16T08:56:21;3.17;;;1.70;;
12332;SDS011;6232;48.094;11.288;2023-01-16T08:59:06;1.83;;;1.73;;
12332;SDS011;6232;48.094;11.288;2023-01-16T09:01:52;1.50;;;1.50;;
12332;SDS011;6232;48.094;11.288;2023-01-16T09:04:37;2.20;;;1.63;;
12332;SDS011;6232;48.094;11.288;2023-01-16T09:07:23;1.70;;;1.60;;
12332;SDS011;6232;48.094;11.288;2023-01-16T09:10:09;1.20;;;1.20;;
12332;SDS011;6232;48.094;11.288;2023-01-16T09:12:55;1.67;;;1.57;;
12332;SDS011;6232;48.094;11.288;2023-01-16T09:16:01;1.43;;;1.40;;
12332;SDS011;6232;48.094;11.288;2023-01-16T09:18:47;3.73;;;1.70;;
12332;SDS011;6232;48.094;11.288;2023-01-16T09:21:32;1.77;;;1.67;;
12332;SDS011;6232;48.094;11.288;2023-01-16T09:24:18;1.73;;;1.63;;
12332;SDS011;6232;48.094;11.288;2023-01-16T09:27:04;1.80;;;1.70;;
12332;SDS011;6232;48.094;11.288;2023-01-16T09:29:50;3.80;;;1.30;;
12332;SDS011;6232;48.094;11.288;2023-01-16T09:32:36;1.60;;;1.50;;
12332;SDS011;6232;48.094;11.288;2023-01-16T09:35:21;1.30;;;1.30;;
12332;SDS011;6232;48.094;11.288;2023-01-16T09:38:07;1.50;;;1.40;;
12332;SDS011;6232;48.094;11.288;2023-01-16T09:40:56;1.43;;;1.43;;
12332;SDS011;6232;48.094;11.288;2023-01-16T09:43:42;1.93;;;1.17;;
12332;SDS011;6232;48.094;11.288;2023-01-16T09:46:33;1.40;;;1.37;;
12332;SDS011;6232;48.094;11.288;2023-01-16T09:49:31;1.20;;;1.20;;
12332;SDS011;6232;48.094;11.288;2023-01-16T09:52:23;1.40;;;1.30;;
12332;SDS011;6232;48.094;11.288;2023-01-16T09:55:32;1.63;;;1.20;;
12332;SDS011;6232;48.094;11.288;2023-01-16T09:58:39;1.30;;;1.30;;
12332;SDS011;6232;48.094;11.288;2023-01-16T10:01:27;1.20;;;1.20;;
12332;SDS011;6232;48.094;11.288;2023-01-16T10:04:19;2.10;;;1.33;;
12332;SDS011;6232;48.094;11.288;2023-01-16T10:07:09;1.80;;;1.70;;
12332;SDS011;6232;48.094;11.288;2023-01-16T10:30:42;1.33;;;1.10;;
12332;SDS011;6232;48.094;11.288;2023-01-16T10:33:33;1.10;;;1.10;;
12332;SDS011;6232;48.094;11.288;2023-01-16T10:36:20;1.20;;;1.20;;
12332;SDS011;6232;48.094;11.288;2023-01-16T10:39:08;1.47;;;1.37;;
12332;SDS011;6232;48.094;11.288;2023-01-16T10:41:59;1.50;;;1.40;;
12332;SDS011;6232;48.094;11.288;2023-01-16T10:48:11;1.10;;;1.10;;
12332;SDS011;6232;48.094;11.288;2023-01-16T10:51:17;2.50;;;1.57;;
12332;SDS011;6232;48.094;11.288;2023-01-16T10:54:02;1.50;;;1.40;;
12332;SDS011;6232;48.094;11.288;2023-01-16T10:56:48;1.40;;;1.30;;
12332;SDS011;6232;48.094;11.288;2023-01-16T10:59:34;5.27;;;1.40;;
12332;SDS011;6232;48.094;11.288;2023-01-16T11:05:30;1.23;;;1.13;;
12332;SDS011;6232;48.094;11.288;2023-01-16T11:08:17;1.33;;;1.27;;
12332;SDS011;6232;48.094;11.288;2023-01-16T11:11:04;11.00;;;1.53;;
12332;SDS011;6232;48.094;11.288;2023-01-16T11:13:49;2.57;;;1.50;;
12332;SDS011;6232;48.094;11.288;2023-01-16T11:16:54;2.20;;;1.30;;
12332;SDS011;6232;48.094;11.288;2023-01-16T11:19:58;1.27;;;1.17;;
12332;SDS011;6232;48.094;11.288;2023-01-16T11:22:44;1.47;;;1.37;;
12332;SDS011;6232;48.094;11.288;2023-01-16T11:25:30;1.40;;;1.30;;
12332;SDS011;6232;48.094;11.288;2023-01-16T11:28:18;1.10;;;1.10;;
12332;SDS011;6232;48.094;11.288;2023-01-16T11:31:09;2.57;;;1.27;;
12332;SDS011;6232;48.094;11.288;2023-01-16T11:34:00;1.63;;;1.37;;
12332;SDS011;6232;48.094;11.288;2023-01-16T11:36:48;1.57;;;1.30;;
12332;SDS011;6232;48.094;11.288;2023-01-16T11:39:34;1.43;;;1.30;;
12332;SDS011;6232;48.094;11.288;2023-01-16T11:42:20;1.10;;;1.10;;
12332;SDS011;6232;48.094;11.288;2023-01-16T11:45:24;1.60;;;1.50;;
12332;SDS011;6232;48.094;11.288;2023-01-16T11:48:51;1.47;;;1.10;;
12332;SDS011;6232;48.094;11.288;2023-01-16T11:51:38;1.17;;;1.17;;
12332;SDS011;6232;48.094;11.288;2023-01-16T11:54:27;1.50;;;1.40;;
12332;SDS011;6232;48.094;11.288;2023-01-16T11:57:19;3.87;;;1.30;;
12332;SDS011;6232;48.094;11.288;2023-01-16T12:00:16;1.23;;;1.17;;
12332;SDS011;6232;48.094;11.288;2023-01-16T12:09:03;1.47;;;1.37;;
12332;SDS011;6232;48.094;11.288;2023-01-16T12:18:23;2.20;;;1.37;;
12332;SDS011;6232;48.094;11.288;2023-01-16T12:21:25;3.50;;;1.30;;
12332;SDS011;6232;48.094;11.288;2023-01-16T12:36:40;4.60;;;1.60;;
12332;SDS011;6232;48.094;11.288;2023-01-16T12:39:48;2.63;;;1.40;;
12332;SDS011;6232;48.094;11.288;2023-01-16T12:45:54;1.40;;;1.30;;
12332;SDS011;6232;48.094;11.288;2023-01-16T12:48:43;1.47;;;1.37;;
12332;SDS011;6232;48.094;11.288;2023-01-16T13:00:27;1.43;;;1.33;;
12332;SDS011;6232;48.094;11.288;2023-01-16T13:03:20;1.50;;;1.30;;
12332;SDS011;6232;48.094;11.288;2023-01-16T13:06:06;1.40;;;1.30;;
12332;SDS011;6232;48.094;11.288;2023-01-16T13:08:55;2.50;;;1.20;;
12332;SDS011;6232;48.094;11.288;2023-01-16T13:12:00;1.10;;;1.10;;
12332;SDS011;6232;48.094;11.288;2023-01-16T13:15:06;1.37;;;1.30;;
12332;SDS011;6232;48.094;11.288;2023-01-16T13:17:56;2.07;;;1.37;;
12332;SDS011;6232;48.094;11.288;2023-01-16T13:20:44;1.40;;;1.30;;
12332;SDS011;6232;48.094;11.288;2023-01-16T13:26:46;4.00;;;2.57;;
12332;SDS011;6232;48.094;11.288;2023-01-16T13:29:39;1.53;;;1.43;;
12332;SDS011;6232;48.094;11.288;2023-01-16T13:32:29;1.37;;;1.27;;
12332;SDS011;6232;48.094;11.288;2023-01-16T13:35:20;1.23;;;1.23;;
12332;SDS011;6232;48.094;11.288;2023-01-16T13:38:20;2.00;;;1.50;;
12332;SDS011;6232;48.094;11.288;2023-01-16T13:44:04;1.30;;;1.20;;
12332;SDS011;6232;48.094;11.288;2023-01-16T13:47:17;1.90;;;1.43;;
12332;SDS011;6232;48.094;11.288;2023-01-16T13:52:56;1.60;;;1.50;;
12332;SDS011;6232;48.094;11.288;2023-01-16T13:55:42;2.40;;;1.90;;
12332;SDS011;6232;48.094;11.288;2023-01-16T13:58:28;1.67;;;1.57;;
12332;SDS011;6232;48.094;11.288;2023-01-16T14:13:30;2.50;;;1.60;;
12332;SDS011;6232;48.094;11.288;2023-01-16T14:16:50;1.87;;;1.50;;
12332;SDS011;6232;48.094;11.288;2023-01-16T14:19:29;4.67;;;1.80;;
12332;SDS011;6232;48.094;11.288;2023-01-16T14:22:23;2.10;;;1.57;;
12332;SDS011;6232;48.094;11.288;2023-01-16T14:25:17;1.60;;;1.50;;
12332;SDS011;6232;48.094;11.288;2023-01-16T14:28:04;1.70;;;1.60;;
12332;SDS011;6232;48.094;11.288;2023-01-16T14:30:49;2.30;;;1.67;;
12332;SDS011;6232;48.094;11.288;2023-01-16T14:33:35;5.50;;;1.57;;
12332;SDS011;6232;48.094;11.288;2023-01-16T14:36:21;3.47;;;1.77;;
12332;SDS011;6232;48.094;11.288;2023-01-16T14:39:24;2.30;;;1.63;;
12332;SDS011;6232;48.094;11.288;2023-01-16T14:48:35;2.23;;;2.03;;
12332;SDS011;6232;48.094;11.288;2023-01-16T14:51:53;3.07;;;1.60;;
12332;SDS011;6232;48.094;11.288;2023-01-16T14:54:57;3.27;;;2.20;;
12332;SDS011;6232;48.094;11.288;2023-01-16T14:57:58;2.03;;;1.70;;
12332;SDS011;6232;48.094;11.288;2023-01-16T15:00:44;2.63;;;1.97;;
12332;SDS011;6232;48.094;11.288;2023-01-16T15:03:32;3.00;;;2.17;;
12332;SDS011;6232;48.094;11.288;2023-01-16T15:06:39;3.33;;;1.93;;
12332;SDS011;6232;48.094;11.288;2023-01-16T15:09:26;3.60;;;1.97;;
12332;SDS011;6232;48.094;11.288;2023-01-16T15:12:13;2.50;;;2.00;;
12332;SDS011;6232;48.094;11.288;2023-01-16T15:14:59;2.90;;;1.97;;
12332;SDS011;6232;48.094;11.288;2023-01-16T15:17:45;3.40;;;2.27;;
12332;SDS011;6232;48.094;11.288;2023-01-16T15:20:49;3.53;;;2.10;;
12332;SDS011;6232;48.094;11.288;2023-01-16T15:23:55;4.30;;;2.10;;
12332;SDS011;6232;48.094;11.288;2023-01-16T15:29:47;1.60;;;1.50;;
12332;SDS011;6232;48.094;11.288;2023-01-16T15:32:55;3.03;;;2.40;;
12332;SDS011;6232;48.094;11.288;2023-01-16T15:36:01;2.63;;;2.27;;
12332;SDS011;6232;48.094;11.288;2023-01-16T15:38:51;1.93;;;1.80;;
12332;SDS011;6232;48.094;11.288;2023-01-16T15:41:37;1.70;;;1.60;;
12332;SDS011;6232;48.094;11.288;2023-01-16T15:44:42;3.00;;;1.83;;
12332;SDS011;6232;48.094;11.288;2023-01-16T15:53:45;2.00;;;1.80;;
12332;SDS011;6232;48.094;11.288;2023-01-16T15:56:38;2.80;;;2.03;;
12332;SDS011;6232;48.094;11.288;2023-01-16T15:59:28;2.00;;;1.63;;
12332;SDS011;6232;48.094;11.288;2023-01-16T16:02:25;2.33;;;1.87;;
12332;SDS011;6232;48.094;11.288;2023-01-16T16:05:13;4.73;;;2.13;;
12332;SDS011;6232;48.094;11.288;2023-01-16T16:07:59;11.50;;;2.63;;
12332;SDS011;6232;48.094;11.288;2023-01-16T16:10:47;3.10;;;1.97;;
12332;SDS011;6232;48.094;11.288;2023-01-16T16:13:51;4.17;;;2.20;;
12332;SDS011;6232;48.094;11.288;2023-01-16T16:16:38;3.90;;;1.87;;
12332;SDS011;6232;48.094;11.288;2023-01-16T16:19:42;2.63;;;1.93;;
12332;SDS011;6232;48.094;11.288;2023-01-16T16:22:28;4.40;;;2.13;;
12332;SDS011;6232;48.094;11.288;2023-01-16T16:25:36;2.07;;;1.87;;
12332;SDS011;6232;48.094;11.288;2023-01-16T16:28:23;9.90;;;5.40;;
12332;SDS011;6232;48.094;11.288;2023-01-16T16:31:16;7.30;;;2.70;;
12332;SDS011;6232;48.094;11.288;2023-01-16T16:34:13;4.13;;;2.40;;
12332;SDS011;6232;48.094;11.288;2023-01-16T16:37:01;4.30;;;2.10;;
12332;SDS011;6232;48.094;11.288;2023-01-16T16:39:47;10.37;;;5.30;;
12332;SDS011;6232;48.094;11.288;2023-01-16T16:45:21;11.30;;;6.80;;
12332;SDS011;6232;48.094;11.288;2023-01-16T16:48:20;6.37;;;4.10;;
12332;SDS011;6232;48.094;11.288;2023-01-16T16:51:17;2.20;;;2.10;;
12332;SDS011;6232;48.094;11.288;2023-01-16T16:54:05;3.37;;;1.93;;
12332;SDS011;6232;48.094;11.288;2023-01-16T16:56:56;2.10;;;1.70;;
12332;SDS011;6232;48.094;11.288;2023-01-16T16:59:42;3.10;;;2.10;;
12332;SDS011;6232;48.094;11.288;2023-01-16T17:02:27;6.43;;;2.77;;
12332;SDS011;6232;48.094;11.288;2023-01-16T17:05:13;3.47;;;2.90;;
12332;SDS011;6232;48.094;11.288;2023-01-16T17:08:00;4.33;;;2.97;;
12332;SDS011;6232;48.094;11.288;2023-01-16T17:10:46;3.20;;;2.90;;
12332;SDS011;6232;48.094;11.288;2023-01-16T17:13:34;10.77;;;6.07;;
12332;SDS011;6232;48.094;11.288;2023-01-16T17:16:20;6.47;;;4.00;;
12332;SDS011;6232;48.094;11.288;2023-01-16T17:21:55;9.40;;;3.40;;
12332;SDS011;6232;48.094;11.288;2023-01-16T17:24:41;7.07;;;3.50;;
12332;SDS011;6232;48.094;11.288;2023-01-16T17:27:26;5.93;;;3.57;;
12332;SDS011;6232;48.094;11.288;2023-01-16T17:30:12;5.93;;;4.03;;
12332;SDS011;6232;48.094;11.288;2023-01-16T17:33:19;15.27;;;9.93;;
12332;SDS011;6232;48.094;11.288;2023-01-16T17:36:04;16.40;;;9.63;;
12332;SDS011;6232;48.094;11.288;2023-01-16T17:38:55;24.40;;;9.40;;
12332;SDS011;6232;48.094;11.288;2023-01-16T17:41:41;20.87;;;10.27;;
12332;SDS011;6232;48.094;11.288;2023-01-16T17:44:26;8.63;;;5.33;;
12332;SDS011;6232;48.094;11.288;2023-01-16T17:47:30;27.90;;;15.70;;
12332;SDS011;6232;48.094;11.288;2023-01-16T17:50:17;5.40;;;4.30;;
12332;SDS011;6232;48.094;11.288;2023-01-16T17:53:08;11.33;;;7.40;;
12332;SDS011;6232;48.094;11.288;2023-01-16T17:55:59;13.63;;;7.23;;
12332;SDS011;6232;48.094;11.288;2023-01-16T17:58:46;4.60;;;3.37;;
12332;SDS011;6232;48.094;11.288;2023-01-16T18:01:32;12.50;;;10.03;;
12332;SDS011;6232;48.094;11.288;2023-01-16T18:04:23;4.90;;;2.80;;
12332;SDS011;6232;48.094;11.288;2023-01-16T18:07:08;2.80;;;2.60;;
12332;SDS011;6232;48.094;11.288;2023-01-16T18:09:54;2.13;;;1.93;;
12332;SDS011;6232;48.094;11.288;2023-01-16T18:12:39;2.10;;;2.00;;
12332;SDS011;6232;48.094;11.288;2023-01-16T18:15:44;2.27;;;2.07;;
12332;SDS011;6232;48.094;11.288;2023-01-16T18:18:48;2.30;;;1.90;;
12332;SDS011;6232;48.094;11.288;2023-01-16T18:21:33;2.40;;;2.13;;
12332;SDS011;6232;48.094;11.288;2023-01-16T18:24:41;2.67;;;2.47;;
12332;SDS011;6232;48.094;11.288;2023-01-16T18:27:27;2.37;;;2.17;;
12332;SDS011;6232;48.094;11.288;2023-01-16T18:30:13;2.20;;;1.73;;
12332;SDS011;6232;48.094;11.288;2023-01-16T18:32:58;5.03;;;1.60;;
12332;SDS011;6232;48.094;11.288;2023-01-16T18:35:44;2.03;;;1.93;;
12332;SDS011;6232;48.094;11.288;2023-01-16T18:38:32;5.10;;;1.90;;
12332;SDS011;6232;48.094;11.288;2023-01-16T18:41:36;2.10;;;1.40;;
12332;SDS011;6232;48.094;11.288;2023-01-16T18:44:41;1.20;;;1.20;;
12332;SDS011;6232;48.094;11.288;2023-01-16T18:47:45;3.70;;;2.13;;
12332;SDS011;6232;48.094;11.288;2023-01-16T18:50:49;3.33;;;2.03;;
12332;SDS011;6232;48.094;11.288;2023-01-16T18:53:53;1.80;;;1.70;;
12332;SDS011;6232;48.094;11.288;2023-01-16T18:56:57;10.53;;;2.43;;
12332;SDS011;6232;48.094;11.288;2023-01-16T19:00:08;1.73;;;1.63;;
12332;SDS011;6232;48.094;11.288;2023-01-16T19:03:16;1.60;;;1.50;;
12332;SDS011;6232;48.094;11.288;2023-01-16T19:06:02;1.30;;;1.20;;
12332;SDS011;6232;48.094;11.288;2023-01-16T19:08:47;1.43;;;1.40;;
12332;SDS011;6232;48.094;11.288;2023-01-16T19:11:35;1.63;;;1.53;;
12332;SDS011;6232;48.094;11.288;2023-01-16T19:14:21;1.20;;;1.20;;
12332;SDS011;6232;48.094;11.288;2023-01-16T19:17:07;1.03;;;1.03;;
12332;SDS011;6232;48.094;11.288;2023-01-16T19:19:53;1.10;;;1.10;;
12332;SDS011;6232;48.094;11.288;2023-01-16T19:22:40;1.20;;;1.20;;
12332;SDS011;6232;48.094;11.288;2023-01-16T19:25:25;2.37;;;1.50;;
12332;SDS011;6232;48.094;11.288;2023-01-16T19:28:11;2.13;;;1.60;;
12332;SDS011;6232;48.094;11.288;2023-01-16T19:30:57;1.10;;;1.10;;